sensor_id;sensor_type;location;lat;lon;timestamp;P1;P2;P0
53658;PMS5003;41524;35.624;139.698;2024-03-22T00:00:10;8.00;7.00;
53658;PMS5003;41524;35.624;139.698;2024-03-22T00:05:09;8.00;7.00;
53658;PMS5003;41524;35.624;139.698;2024-03-22T00:10:09;10.00;10.00;
53658;PMS5003;41524;35.624;139.698;2024-03-22T00:15:10;6.00;6.00;
53658;PMS5003;41524;35.624;139.698;2024-03-22T00:20:09;9.00;7.00;
53658;PMS5003;41524;35.624;139.698;2024-03-22T00:25:09;5.00;5.00;
53658;PMS5003;41524;35.624;139.698;2024-03-22T00:30:10;6.00;5.00;
53658;PMS5003;41524;35.624;139.698;2024-03-22T00:35:09;5.00;5.00;
53658;PMS5003;41524;35.624;139.698;2024-03-22T00:40:09;13.00;10.00;
53658;PMS5003;41524;35.624;139.698;2024-03-22T00:45:09;4.00;3.00;
53658;PMS5003;41524;35.624;139.698;2024-03-22T00:50:09;4.00;4.00;
53658;PMS5003;41524;35.624;139.698;2024-03-22T00:55:09;4.00;4.00;
53658;PMS5003;41524;35.624;139.698;2024-03-22T01:00:10;5.00;5.00;
53658;PMS5003;41524;35.624;139.698;2024-03-22T01:05:10;7.00;7.00;
53658;PMS5003;41524;35.624;139.698;2024-03-22T01:10:09;5.00;5.00;
53658;PMS5003;41524;35.624;139.698;2024-03-22T01:15:10;3.00;3.00;
53658;PMS5003;41524;35.624;139.698;2024-03-22T01:20:10;4.00;4.00;
53658;PMS5003;41524;35.624;139.698;2024-03-22T01:25:09;1.00;1.00;
53658;PMS5003;41524;35.624;139.698;2024-03-22T01:30:10;3.00;1.00;
53658;PMS5003;41524;35.624;139.698;2024-03-22T01:35:09;5.00;2.00;
53658;PMS5003;41524;35.624;139.698;2024-03-22T01:40:10;4.00;4.00;
53658;PMS5003;41524;35.624;139.698;2024-03-22T01:45:09;3.00;3.00;
53658;PMS5003;41524;35.624;139.698;2024-03-22T01:50:09;5.00;5.00;
53658;PMS5003;41524;35.624;139.698;2024-03-22T01:55:09;3.00;3.00;
53658;PMS5003;41524;35.624;139.698;2024-03-22T02:00:09;2.00;2.00;
53658;PMS5003;41524;35.624;139.698;2024-03-22T02:05:13;4.00;4.00;
53658;PMS5003;41524;35.624;139.698;2024-03-22T02:10:10;2.00;2.00;
53658;PMS5003;41524;35.624;139.698;2024-03-22T02:15:09;3.00;3.00;
53658;PMS5003;41524;35.624;139.698;2024-03-22T02:20:09;3.00;2.00;
53658;PMS5003;41524;35.624;139.698;2024-03-22T02:25:10;3.00;3.00;
53658;PMS5003;41524;35.624;139.698;2024-03-22T02:30:10;6.00;4.00;
53658;PMS5003;41524;35.624;139.698;2024-03-22T02:35:10;3.00;3.00;
53658;PMS5003;41524;35.624;139.698;2024-03-22T02:40:10;6.00;3.00;
53658;PMS5003;41524;35.624;139.698;2024-03-22T02:45:09;5.00;4.00;
53658;PMS5003;41524;35.624;139.698;2024-03-22T02:50:10;3.00;2.00;
53658;PMS5003;41524;35.624;139.698;2024-03-22T02:55:09;6.00;5.00;
53658;PMS5003;41524;35.624;139.698;2024-03-22T03:00:12;4.00;4.00;
53658;PMS5003;41524;35.624;139.698;2024-03-22T03:05:09;3.00;3.00;
53658;PMS5003;41524;35.624;139.698;2024-03-22T03:10:09;2.00;2.00;
53658;PMS5003;41524;35.624;139.698;2024-03-22T03:15:10;3.00;3.00;
53658;PMS5003;41524;35.624;139.698;2024-03-22T03:20:10;3.00;3.00;
53658;PMS5003;41524;35.624;139.698;2024-03-22T03:25:10;3.00;3.00;
53658;PMS5003;41524;35.624;139.698;2024-03-22T03:30:10;5.00;5.00;
53658;PMS5003;41524;35.624;139.698;2024-03-22T03:35:09;4.00;4.00;
53658;PMS5003;41524;35.624;139.698;2024-03-22T03:40:10;5.00;4.00;
53658;PMS5003;41524;35.624;139.698;2024-03-22T03:45:09;4.00;3.00;
53658;PMS5003;41524;35.624;139.698;2024-03-22T03:50:09;6.00;6.00;
53658;PMS5003;41524;35.624;139.698;2024-03-22T03:55:09;5.00;4.00;
53658;PMS5003;41524;35.624;139.698;2024-03-22T04:00:09;4.00;3.00;
53658;PMS5003;41524;35.624;139.698;2024-03-22T04:05:10;3.00;3.00;
53658;PMS5003;41524;35.624;139.698;2024-03-22T04:10:09;3.00;3.00;
53658;PMS5003;41524;35.624;139.698;2024-03-22T04:15:09;4.00;4.00;
53658;PMS5003;41524;35.624;139.698;2024-03-22T04:20:10;4.00;4.00;
53658;PMS5003;41524;35.624;139.698;2024-03-22T04:25:16;6.00;4.00;
53658;PMS5003;41524;35.624;139.698;2024-03-22T04:30:10;4.00;4.00;
53658;PMS5003;41524;35.624;139.698;2024-03-22T04:35:09;1.00;1.00;
53658;PMS5003;41524;35.624;139.698;2024-03-22T04:40:11;4.00;4.00;
53658;PMS5003;41524;35.624;139.698;2024-03-22T04:45:09;4.00;3.00;
53658;PMS5003;41524;35.624;139.698;2024-03-22T04:50:09;3.00;3.00;
53658;PMS5003;41524;35.624;139.698;2024-03-22T04:55:09;3.00;3.00;
53658;PMS5003;41524;35.624;139.698;2024-03-22T05:00:10;4.00;4.00;
53658;PMS5003;41524;35.624;139.698;2024-03-22T05:05:09;5.00;5.00;
53658;PMS5003;41524;35.624;139.698;2024-03-22T05:10:09;3.00;2.00;
53658;PMS5003;41524;35.624;139.698;2024-03-22T05:15:10;4.00;3.00;
53658;PMS5003;41524;35.624;139.698;2024-03-22T05:20:10;4.00;4.00;
53658;PMS5003;41524;35.624;139.698;2024-03-22T05:25:09;3.00;3.00;
53658;PMS5003;41524;35.624;139.698;2024-03-22T05:30:09;1.00;1.00;
53658;PMS5003;41524;35.624;139.698;2024-03-22T05:35:09;5.00;3.00;
53658;PMS5003;41524;35.624;139.698;2024-03-22T05:40:12;4.00;4.00;
53658;PMS5003;41524;35.624;139.698;2024-03-22T05:45:09;3.00;3.00;
53658;PMS5003;41524;35.624;139.698;2024-03-22T05:50:09;3.00;3.00;
53658;PMS5003;41524;35.624;139.698;2024-03-22T05:55:10;2.00;2.00;
53658;PMS5003;41524;35.624;139.698;2024-03-22T06:00:10;1.00;1.00;
53658;PMS5003;41524;35.624;139.698;2024-03-22T06:05:09;3.00;3.00;
53658;PMS5003;41524;35.624;139.698;2024-03-22T06:10:09;3.00;3.00;
53658;PMS5003;41524;35.624;139.698;2024-03-22T06:15:10;3.00;3.00;
53658;PMS5003;41524;35.624;139.698;2024-03-22T06:20:10;2.00;2.00;
53658;PMS5003;41524;35.624;139.698;2024-03-22T06:25:09;4.00;4.00;
53658;PMS5003;41524;35.624;139.698;2024-03-22T06:30:10;4.00;4.00;
53658;PMS5003;41524;35.624;139.698;2024-03-22T06:35:09;2.00;2.00;
53658;PMS5003;41524;35.624;139.698;2024-03-22T06:40:10;2.00;1.00;
53658;PMS5003;41524;35.624;139.698;2024-03-22T06:45:09;4.00;4.00;
53658;PMS5003;41524;35.624;139.698;2024-03-22T06:50:10;3.00;3.00;
53658;PMS5003;41524;35.624;139.698;2024-03-22T06:55:09;6.00;6.00;
53658;PMS5003;41524;35.624;139.698;2024-03-22T07:00:09;2.00;2.00;
53658;PMS5003;41524;35.624;139.698;2024-03-22T07:05:10;2.00;2.00;
53658;PMS5003;41524;35.624;139.698;2024-03-22T07:10:10;2.00;2.00;
53658;PMS5003;41524;35.624;139.698;2024-03-22T07:15:09;3.00;2.00;
53658;PMS5003;41524;35.624;139.698;2024-03-22T07:20:09;3.00;3.00;
53658;PMS5003;41524;35.624;139.698;2024-03-22T07:25:11;3.00;3.00;
53658;PMS5003;41524;35.624;139.698;2024-03-22T07:30:09;3.00;3.00;
53658;PMS5003;41524;35.624;139.698;2024-03-22T07:35:09;2.00;2.00;
53658;PMS5003;41524;35.624;139.698;2024-03-22T07:40:14;3.00;2.00;
53658;PMS5003;41524;35.624;139.698;2024-03-22T07:45:09;3.00;3.00;
53658;PMS5003;41524;35.624;139.698;2024-03-22T07:50:11;2.00;2.00;
53658;PMS5003;41524;35.624;139.698;2024-03-22T07:55:09;3.00;2.00;
53658;PMS5003;41524;35.624;139.698;2024-03-22T08:00:09;6.00;6.00;
53658;PMS5003;41524;35.624;139.698;2024-03-22T08:05:09;5.00;4.00;
53658;PMS5003;41524;35.624;139.698;2024-03-22T08:10:09;4.00;2.00;
53658;PMS5003;41524;35.624;139.698;2024-03-22T08:15:10;5.00;4.00;
53658;PMS5003;41524;35.624;139.698;2024-03-22T08:20:10;3.00;3.00;
53658;PMS5003;41524;35.624;139.698;2024-03-22T08:25:09;3.00;3.00;
53658;PMS5003;41524;35.624;139.698;2024-03-22T08:30:10;5.00;4.00;
53658;PMS5003;41524;35.624;139.698;2024-03-22T08:35:12;5.00;4.00;
53658;PMS5003;41524;35.624;139.698;2024-03-22T08:40:10;2.00;2.00;
53658;PMS5003;41524;35.624;139.698;2024-03-22T08:45:10;4.00;4.00;
53658;PMS5003;41524;35.624;139.698;2024-03-22T08:50:09;4.00;3.00;
53658;PMS5003;41524;35.624;139.698;2024-03-22T08:55:08;2.00;1.00;
53658;PMS5003;41524;35.624;139.698;2024-03-22T09:00:09;2.00;2.00;
53658;PMS5003;41524;35.624;139.698;2024-03-22T09:05:09;2.00;2.00;
53658;PMS5003;41524;35.624;139.698;2024-03-22T09:10:10;3.00;3.00;
53658;PMS5003;41524;35.624;139.698;2024-03-22T09:15:09;2.00;2.00;
53658;PMS5003;41524;35.624;139.698;2024-03-22T09:20:10;5.00;2.00;
53658;PMS5003;41524;35.624;139.698;2024-03-22T09:25:08;2.00;2.00;
53658;PMS5003;41524;35.624;139.698;2024-03-22T09:30:09;2.00;2.00;
53658;PMS5003;41524;35.624;139.698;2024-03-22T09:35:10;3.00;3.00;
53658;PMS5003;41524;35.624;139.698;2024-03-22T09:40:10;2.00;2.00;
53658;PMS5003;41524;35.624;139.698;2024-03-22T09:45:09;3.00;2.00;
53658;PMS5003;41524;35.624;139.698;2024-03-22T09:50:10;3.00;3.00;
53658;PMS5003;41524;35.624;139.698;2024-03-22T09:55:11;3.00;3.00;
53658;PMS5003;41524;35.624;139.698;2024-03-22T10:00:10;2.00;2.00;
53658;PMS5003;41524;35.624;139.698;2024-03-22T10:05:10;2.00;2.00;
53658;PMS5003;41524;35.624;139.698;2024-03-22T10:10:09;3.00;3.00;
53658;PMS5003;41524;35.624;139.698;2024-03-22T10:15:09;5.00;3.00;
53658;PMS5003;41524;35.624;139.698;2024-03-22T10:20:12;3.00;3.00;
53658;PMS5003;41524;35.624;139.698;2024-03-22T10:25:09;5.00;3.00;
53658;PMS5003;41524;35.624;139.698;2024-03-22T10:30:10;2.00;2.00;
53658;PMS5003;41524;35.624;139.698;2024-03-22T10:35:09;3.00;3.00;
53658;PMS5003;41524;35.624;139.698;2024-03-22T10:40:10;3.00;3.00;
53658;PMS5003;41524;35.624;139.698;2024-03-22T10:45:09;4.00;3.00;
53658;PMS5003;41524;35.624;139.698;2024-03-22T10:50:10;6.00;4.00;
53658;PMS5003;41524;35.624;139.698;2024-03-22T10:55:10;4.00;4.00;
53658;PMS5003;41524;35.624;139.698;2024-03-22T11:00:10;2.00;2.00;
53658;PMS5003;41524;35.624;139.698;2024-03-22T11:05:16;2.00;2.00;
53658;PMS5003;41524;35.624;139.698;2024-03-22T11:10:11;4.00;4.00;
53658;PMS5003;41524;35.624;139.698;2024-03-22T11:15:10;4.00;4.00;
53658;PMS5003;41524;35.624;139.698;2024-03-22T11:20:10;4.00;4.00;
53658;PMS5003;41524;35.624;139.698;2024-03-22T11:25:09;3.00;3.00;
53658;PMS5003;41524;35.624;139.698;2024-03-22T11:30:10;10.00;7.00;
53658;PMS5003;41524;35.624;139.698;2024-03-22T11:35:10;5.00;5.00;
53658;PMS5003;41524;35.624;139.698;2024-03-22T11:40:09;6.00;6.00;
53658;PMS5003;41524;35.624;139.698;2024-03-22T11:45:11;4.00;4.00;
53658;PMS5003;41524;35.624;139.698;2024-03-22T11:50:10;7.00;6.00;
53658;PMS5003;41524;35.624;139.698;2024-03-22T11:55:10;4.00;4.00;
53658;PMS5003;41524;35.624;139.698;2024-03-22T12:00:10;5.00;5.00;
53658;PMS5003;41524;35.624;139.698;2024-03-22T12:05:10;5.00;5.00;
53658;PMS5003;41524;35.624;139.698;2024-03-22T12:10:09;5.00;5.00;
53658;PMS5003;41524;35.624;139.698;2024-03-22T12:15:10;9.00;8.00;
53658;PMS5003;41524;35.624;139.698;2024-03-22T12:20:09;5.00;5.00;
53658;PMS5003;41524;35.624;139.698;2024-03-22T12:25:09;8.00;5.00;
53658;PMS5003;41524;35.624;139.698;2024-03-22T12:30:10;6.00;5.00;
53658;PMS5003;41524;35.624;139.698;2024-03-22T12:35:09;6.00;6.00;
53658;PMS5003;41524;35.624;139.698;2024-03-22T12:40:10;7.00;7.00;
53658;PMS5003;41524;35.624;139.698;2024-03-22T12:45:09;6.00;6.00;
53658;PMS5003;41524;35.624;139.698;2024-03-22T12:50:24;8.00;8.00;
53658;PMS5003;41524;35.624;139.698;2024-03-22T12:55:09;6.00;6.00;
53658;PMS5003;41524;35.624;139.698;2024-03-22T13:00:10;8.00;8.00;
53658;PMS5003;41524;35.624;139.698;2024-03-22T13:05:09;11.00;9.00;
53658;PMS5003;41524;35.624;139.698;2024-03-22T13:10:09;6.00;6.00;
53658;PMS5003;41524;35.624;139.698;2024-03-22T13:15:10;6.00;6.00;
53658;PMS5003;41524;35.624;139.698;2024-03-22T13:20:10;3.00;3.00;
53658;PMS5003;41524;35.624;139.698;2024-03-22T13:25:09;5.00;5.00;
53658;PMS5003;41524;35.624;139.698;2024-03-22T13:30:09;5.00;4.00;
53658;PMS5003;41524;35.624;139.698;2024-03-22T13:35:09;5.00;5.00;
53658;PMS5003;41524;35.624;139.698;2024-03-22T13:40:10;5.00;5.00;
53658;PMS5003;41524;35.624;139.698;2024-03-22T13:45:10;7.00;7.00;
53658;PMS5003;41524;35.624;139.698;2024-03-22T13:50:09;11.00;9.00;
53658;PMS5003;41524;35.624;139.698;2024-03-22T13:55:10;9.00;8.00;
53658;PMS5003;41524;35.624;139.698;2024-03-22T14:00:14;5.00;5.00;
53658;PMS5003;41524;35.624;139.698;2024-03-22T14:05:09;3.00;3.00;
53658;PMS5003;41524;35.624;139.698;2024-03-22T14:10:09;5.00;5.00;
53658;PMS5003;41524;35.624;139.698;2024-03-22T14:15:09;6.00;5.00;
53658;PMS5003;41524;35.624;139.698;2024-03-22T14:20:09;6.00;4.00;
53658;PMS5003;41524;35.624;139.698;2024-03-22T14:25:11;6.00;4.00;
53658;PMS5003;41524;35.624;139.698;2024-03-22T14:30:10;5.00;5.00;
53658;PMS5003;41524;35.624;139.698;2024-03-22T14:35:09;9.00;8.00;
53658;PMS5003;41524;35.624;139.698;2024-03-22T14:40:10;5.00;5.00;
53658;PMS5003;41524;35.624;139.698;2024-03-22T14:45:10;4.00;4.00;
53658;PMS5003;41524;35.624;139.698;2024-03-22T14:50:09;3.00;3.00;
53658;PMS5003;41524;35.624;139.698;2024-03-22T14:55:09;6.00;6.00;
53658;PMS5003;41524;35.624;139.698;2024-03-22T15:00:10;5.00;5.00;
53658;PMS5003;41524;35.624;139.698;2024-03-22T15:05:10;4.00;4.00;
53658;PMS5003;41524;35.624;139.698;2024-03-22T15:10:10;4.00;4.00;
53658;PMS5003;41524;35.624;139.698;2024-03-22T15:15:09;5.00;5.00;
53658;PMS5003;41524;35.624;139.698;2024-03-22T15:20:09;3.00;3.00;
53658;PMS5003;41524;35.624;139.698;2024-03-22T15:25:09;6.00;5.00;
53658;PMS5003;41524;35.624;139.698;2024-03-22T15:30:10;4.00;4.00;
53658;PMS5003;41524;35.624;139.698;2024-03-22T15:35:09;7.00;6.00;
53658;PMS5003;41524;35.624;139.698;2024-03-22T15:40:09;5.00;5.00;
53658;PMS5003;41524;35.624;139.698;2024-03-22T15:45:10;5.00;4.00;
53658;PMS5003;41524;35.624;139.698;2024-03-22T15:50:10;3.00;3.00;
53658;PMS5003;41524;35.624;139.698;2024-03-22T15:55:09;4.00;4.00;
53658;PMS5003;41524;35.624;139.698;2024-03-22T16:00:10;7.00;7.00;
53658;PMS5003;41524;35.624;139.698;2024-03-22T16:05:09;4.00;4.00;
53658;PMS5003;41524;35.624;139.698;2024-03-22T16:10:09;5.00;5.00;
53658;PMS5003;41524;35.624;139.698;2024-03-22T16:15:10;5.00;5.00;
53658;PMS5003;41524;35.624;139.698;2024-03-22T16:20:10;5.00;5.00;
53658;PMS5003;41524;35.624;139.698;2024-03-22T16:25:09;6.00;5.00;
53658;PMS5003;41524;35.624;139.698;2024-03-22T16:30:09;5.00;4.00;
53658;PMS5003;41524;35.624;139.698;2024-03-22T16:35:09;8.00;5.00;
53658;PMS5003;41524;35.624;139.698;2024-03-22T16:40:10;10.00;10.00;
53658;PMS5003;41524;35.624;139.698;2024-03-22T16:45:09;5.00;5.00;
53658;PMS5003;41524;35.624;139.698;2024-03-22T16:50:11;6.00;4.00;
53658;PMS5003;41524;35.624;139.698;2024-03-22T16:55:10;7.00;7.00;
53658;PMS5003;41524;35.624;139.698;2024-03-22T17:00:10;7.00;6.00;
53658;PMS5003;41524;35.624;139.698;2024-03-22T17:05:10;4.00;4.00;
53658;PMS5003;41524;35.624;139.698;2024-03-22T17:10:09;7.00;6.00;
53658;PMS5003;41524;35.624;139.698;2024-03-22T17:15:09;6.00;6.00;
53658;PMS5003;41524;35.624;139.698;2024-03-22T17:20:10;6.00;6.00;
53658;PMS5003;41524;35.624;139.698;2024-03-22T17:25:09;8.00;6.00;
53658;PMS5003;41524;35.624;139.698;2024-03-22T17:30:09;9.00;7.00;
53658;PMS5003;41524;35.624;139.698;2024-03-22T17:35:09;4.00;4.00;
53658;PMS5003;41524;35.624;139.698;2024-03-22T17:40:10;7.00;5.00;
53658;PMS5003;41524;35.624;139.698;2024-03-22T17:45:09;6.00;6.00;
53658;PMS5003;41524;35.624;139.698;2024-03-22T17:50:09;4.00;4.00;
53658;PMS5003;41524;35.624;139.698;2024-03-22T17:55:10;5.00;5.00;
53658;PMS5003;41524;35.624;139.698;2024-03-22T18:00:10;8.00;8.00;
53658;PMS5003;41524;35.624;139.698;2024-03-22T18:05:09;8.00;7.00;
53658;PMS5003;41524;35.624;139.698;2024-03-22T18:10:09;9.00;7.00;
53658;PMS5003;41524;35.624;139.698;2024-03-22T18:15:10;8.00;8.00;
53658;PMS5003;41524;35.624;139.698;2024-03-22T18:20:10;10.00;7.00;
53658;PMS5003;41524;35.624;139.698;2024-03-22T18:25:09;8.00;7.00;
53658;PMS5003;41524;35.624;139.698;2024-03-22T18:30:10;7.00;6.00;
53658;PMS5003;41524;35.624;139.698;2024-03-22T18:35:09;8.00;6.00;
53658;PMS5003;41524;35.624;139.698;2024-03-22T18:40:10;8.00;5.00;
53658;PMS5003;41524;35.624;139.698;2024-03-22T18:45:09;8.00;8.00;
53658;PMS5003;41524;35.624;139.698;2024-03-22T18:50:10;7.00;7.00;
53658;PMS5003;41524;35.624;139.698;2024-03-22T18:55:10;10.00;10.00;
53658;PMS5003;41524;35.624;139.698;2024-03-22T19:00:10;12.00;9.00;
53658;PMS5003;41524;35.624;139.698;2024-03-22T19:05:10;8.00;7.00;
53658;PMS5003;41524;35.624;139.698;2024-03-22T19:10:10;10.00;9.00;
53658;PMS5003;41524;35.624;139.698;2024-03-22T19:15:10;8.00;7.00;
53658;PMS5003;41524;35.624;139.698;2024-03-22T19:20:10;9.00;8.00;
53658;PMS5003;41524;35.624;139.698;2024-03-22T19:25:09;8.00;8.00;
53658;PMS5003;41524;35.624;139.698;2024-03-22T19:30:10;7.00;7.00;
53658;PMS5003;41524;35.624;139.698;2024-03-22T19:35:09;12.00;12.00;
53658;PMS5003;41524;35.624;139.698;2024-03-22T19:40:10;11.00;10.00;
53658;PMS5003;41524;35.624;139.698;2024-03-22T19:45:09;10.00;9.00;
53658;PMS5003;41524;35.624;139.698;2024-03-22T19:50:09;12.00;11.00;
53658;PMS5003;41524;35.624;139.698;2024-03-22T19:55:09;16.00;15.00;
53658;PMS5003;41524;35.624;139.698;2024-03-22T20:00:10;11.00;11.00;
53658;PMS5003;41524;35.624;139.698;2024-03-22T20:05:10;14.00;13.00;
53658;PMS5003;41524;35.624;139.698;2024-03-22T20:10:10;11.00;11.00;
53658;PMS5003;41524;35.624;139.698;2024-03-22T20:15:09;10.00;10.00;
53658;PMS5003;41524;35.624;139.698;2024-03-22T20:20:10;10.00;10.00;
53658;PMS5003;41524;35.624;139.698;2024-03-22T20:25:09;13.00;12.00;
53658;PMS5003;41524;35.624;139.698;2024-03-22T20:30:10;9.00;9.00;
53658;PMS5003;41524;35.624;139.698;2024-03-22T20:35:09;12.00;12.00;
